Time;durP1;ratioP1;P1;durP2;ratioP2;P2;SDS_P1;SDS_P2;PMS_P1;PMS_P2;Temp;Humidity;BMP_temperature;BMP_pressure;BME280_temperature;BME280_humidity;BME280_pressure;Samples;Min_cycle;Max_cycle;Signal;HPM_P1;HPM_P2
2022/05/31 00:02:19;;;;;;;6.93;2.20;;;;;;;;;;5077261;28;20062;-80
2022/05/31 00:04:47;;;;;;;2.70;2.08;;;;;;;;;;5057915;28;20078;-80
2022/05/31 00:07:17;;;;;;;6.25;2.30;;;;;;;;;;5076386;28;20047;-81
2022/05/31 00:09:53;;;;;;;2.50;2.17;;;;;;;;;;5076501;28;20020;-81
2022/05/31 00:12:23;;;;;;;3.90;2.00;;;;;;;;;;5075817;28;20059;-81
2022/05/31 00:15:01;;;;;;;3.83;2.33;;;;;;;;;;5075111;28;20028;-81
2022/05/31 00:17:58;;;;;;;2.28;2.00;;;;;;;;;;5066359;28;20033;-81
2022/05/31 00:20:24;;;;;;;2.75;1.92;;;;;;;;;;5055164;28;20033;-81
2022/05/31 00:22:51;;;;;;;3.40;2.15;;;;;;;;;;5056093;28;20047;-80
2022/05/31 00:25:16;;;;;;;2.63;2.10;;;;;;;;;;5057311;28;20652;-80
2022/05/31 00:27:42;;;;;;;4.93;2.30;;;;;;;;;;5068517;28;20021;-81
2022/05/31 00:30:08;;;;;;;2.72;1.80;;;;;;;;;;5073928;28;20032;-80
2022/05/31 00:32:36;;;;;;;3.03;1.75;;;;;;;;;;5057467;28;20031;-81
2022/05/31 00:35:08;;;;;;;2.33;2.13;;;;;;;;;;5075760;28;20414;-80
2022/05/31 00:37:34;;;;;;;6.13;2.40;;;;;;;;;;5075580;28;20024;-81
2022/05/31 00:40:00;;;;;;;3.08;2.15;;;;;;;;;;5075603;28;20482;-80
2022/05/31 00:42:28;;;;;;;6.22;2.15;;;;;;;;;;5075378;28;20016;-81
2022/05/31 00:44:54;;;;;;;2.20;2.10;;;;;;;;;;5038382;28;20028;-80
2022/05/31 00:47:25;;;;;;;2.35;1.80;;;;;;;;;;5037684;28;20482;-81
2022/05/31 00:49:58;;;;;;;4.25;2.08;;;;;;;;;;5037802;28;20033;-81
2022/05/31 00:52:35;;;;;;;2.13;1.77;;;;;;;;;;5055365;28;20025;-80
2022/05/31 00:55:08;;;;;;;3.15;1.90;;;;;;;;;;5060690;28;20051;-80
2022/05/31 00:57:46;;;;;;;;;;;;;;;;;;;;;
2022/05/31 01:18:03;;;;;;;3.53;1.98;;;;;;;;;;5074542;28;20044;-81
2022/05/31 01:21:30;;;;;;;2.40;2.17;;;;;;;;;;5077160;28;20024;-82
2022/05/31 01:28:18;;;;;;;;;;;;;;;;;;;;;
2022/05/31 01:31:39;;;;;;;2.65;1.95;;;;;;;;;;5077554;28;20103;-82
2022/05/31 01:38:26;;;;;;;2.70;2.30;;;;;;;;;;5087560;28;20028;-82
2022/05/31 01:41:24;;;;;;;;;;;;;;;;;;;;;
2022/05/31 01:44:06;;;;;;;2.97;2.30;;;;;;;;;;5097882;28;20102;-81
2022/05/31 01:46:47;;;;;;;;;;;;;;;;;;;;;
2022/05/31 01:52:50;;;;;;;2.80;2.10;;;;;;;;;;4974980;28;20046;-82
2022/05/31 01:55:44;;;;;;;5.53;2.30;;;;;;;;;;4982570;28;20102;-82
2022/05/31 01:59:03;;;;;;;6.03;2.60;;;;;;;;;;5076603;28;20112;-81
2022/05/31 02:01:57;;;;;;;;;;;;;;;;;;;;;
2022/05/31 02:04:31;;;;;;;2.45;2.17;;;;;;;;;;5068240;28;20100;-82
2022/05/31 02:07:16;;;;;;;3.53;2.20;;;;;;;;;;5082776;28;20482;-82
2022/05/31 02:10:03;;;;;;;3.10;2.17;;;;;;;;;;5039135;28;20033;-81
2022/05/31 02:12:47;;;;;;;2.90;2.30;;;;;;;;;;5056772;28;20398;-81
2022/05/31 02:15:40;;;;;;;;;;;;;;;;;;;;;
2022/05/31 02:21:15;;;;;;;4.65;3.05;;;;;;;;;;5092970;28;20523;-82
2022/05/31 02:23:49;;;;;;;5.13;2.80;;;;;;;;;;5056071;28;20032;-81
2022/05/31 02:26:26;;;;;;;4.32;2.70;;;;;;;;;;5055732;28;20040;-80
2022/05/31 02:29:10;;;;;;;;;;;;;;;;;;;;;
2022/05/31 02:32:11;;;;;;;3.80;2.58;;;;;;;;;;5055811;28;20032;-81
2022/05/31 02:38:37;;;;;;;;;;;;;;;;;;;;;
2022/05/31 02:44:46;;;;;;;3.75;2.10;;;;;;;;;;4978343;28;20038;-82
2022/05/31 02:47:12;;;;;;;3.85;2.53;;;;;;;;;;5092708;28;20563;-81
2022/05/31 02:49:39;;;;;;;3.55;2.70;;;;;;;;;;5099910;28;20020;-80
2022/05/31 02:52:07;;;;;;;3.63;2.83;;;;;;;;;;5097710;28;20048;-81
2022/05/31 02:54:33;;;;;;;3.35;2.80;;;;;;;;;;5099322;28;20028;-81
2022/05/31 02:57:00;;;;;;;2.83;2.30;;;;;;;;;;5099634;28;20107;-80
2022/05/31 02:59:26;;;;;;;5.22;2.83;;;;;;;;;;5081392;28;20024;-81
2022/05/31 03:01:52;;;;;;;7.35;2.80;;;;;;;;;;5099845;28;20035;-82
2022/05/31 03:04:41;;;;;;;2.92;2.50;;;;;;;;;;5092424;28;20485;-82
2022/05/31 03:08:07;;;;;;;4.82;2.88;;;;;;;;;;5076038;28;20448;-82
2022/05/31 03:11:02;;;;;;;4.57;2.78;;;;;;;;;;5058738;28;20061;-82
2022/05/31 03:13:58;;;;;;;5.70;2.80;;;;;;;;;;5059048;28;20039;-81
2022/05/31 03:17:19;;;;;;;6.65;3.10;;;;;;;;;;5040010;28;20059;-82
2022/05/31 03:20:21;;;;;;;12.68;3.47;;;;;;;;;;4957419;28;20066;-81
2022/05/31 03:30:45;;;;;;;;;;;;;;;;;;;;;
2022/05/31 03:44:02;;;;;;;;;;;;;;;;;;;;;
2022/05/31 03:47:11;;;;;;;4.22;2.75;;;;;;;;;;5062115;28;20088;-82
2022/05/31 03:50:02;;;;;;;5.40;2.55;;;;;;;;;;5061461;28;20104;-81
2022/05/31 03:56:23;;;;;;;6.45;3.10;;;;;;;;;;5102567;28;20028;-82
2022/05/31 03:59:32;;;;;;;;;;;;;;;;;;;;;
2022/05/31 04:02:46;;;;;;;8.43;2.90;;;;;;;;;;5099293;28;20076;-82
2022/05/31 04:05:19;;;;;;;6.53;2.97;;;;;;;;;;5073466;28;20040;-82
2022/05/31 04:07:51;;;;;;;;;;;;;;;;;;5061888;28;20025;-82
2022/05/31 04:10:35;;;;;;;3.95;2.40;;;;;;;;;;5095877;28;19908;-81
2022/05/31 04:17:24;;;;;;;;;;;;;;;;;;;;;
2022/05/31 04:31:00;;;;;;;4.47;2.92;;;;;;;;;;4887501;29;20093;-81
2022/05/31 04:33:35;;;;;;;3.60;2.65;;;;;;;;;;4899942;29;20140;-81
2022/05/31 04:36:38;;;;;;;4.00;2.70;;;;;;;;;;4984162;28;20038;-82
2022/05/31 04:39:41;;;;;;;4.10;2.95;;;;;;;;;;4982721;28;20045;-82
2022/05/31 04:42:51;;;;;;;6.43;3.30;;;;;;;;;;5078891;28;20490;-82
2022/05/31 04:45:45;;;;;;;3.92;2.85;;;;;;;;;;5054508;28;20066;-81
2022/05/31 04:48:10;;;;;;;5.80;3.55;;;;;;;;;;5097696;28;20073;-82
2022/05/31 04:50:36;;;;;;;6.55;3.05;;;;;;;;;;5098323;28;20028;-82
2022/05/31 04:53:01;;;;;;;7.22;3.15;;;;;;;;;;5096651;28;20028;-81
2022/05/31 04:55:29;;;;;;;10.05;3.30;;;;;;;;;;5097341;28;20049;-82
2022/05/31 04:57:54;;;;;;;3.95;3.10;;;;;;;;;;5086745;28;20091;-82
2022/05/31 05:00:34;;;;;;;4.90;3.28;;;;;;;;;;5094730;28;20048;-81
2022/05/31 05:03:00;;;;;;;6.65;3.22;;;;;;;;;;5097651;28;20024;-81
2022/05/31 05:05:25;;;;;;;6.75;3.10;;;;;;;;;;5081117;28;20029;-81
2022/05/31 05:07:50;;;;;;;4.90;3.40;;;;;;;;;;5090096;28;20062;-81
2022/05/31 05:10:17;;;;;;;5.43;3.30;;;;;;;;;;5098174;28;20153;-81
2022/05/31 05:12:45;;;;;;;4.47;3.20;;;;;;;;;;5096040;28;20031;-80
2022/05/31 05:15:11;;;;;;;5.95;3.17;;;;;;;;;;5098568;28;20589;-81
2022/05/31 05:17:36;;;;;;;4.93;3.40;;;;;;;;;;5075606;28;20524;-81
2022/05/31 05:20:02;;;;;;;3.05;2.70;;;;;;;;;;5083624;28;20035;-81
2022/05/31 05:22:28;;;;;;;5.20;3.53;;;;;;;;;;5089474;28;20031;-81
2022/05/31 05:24:53;;;;;;;4.60;3.22;;;;;;;;;;5096851;28;20101;-82
2022/05/31 05:27:19;;;;;;;7.68;3.55;;;;;;;;;;5097384;28;20028;-81
2022/05/31 05:32:29;;;;;;;8.35;3.35;;;;;;;;;;5088518;28;20032;-82
2022/05/31 05:34:55;;;;;;;6.70;3.30;;;;;;;;;;5084043;28;20020;-82
2022/05/31 05:37:21;;;;;;;4.00;2.85;;;;;;;;;;5093942;28;20474;-82
2022/05/31 05:39:47;;;;;;;6.28;3.10;;;;;;;;;;5082716;28;20024;-81
2022/05/31 05:42:14;;;;;;;5.03;3.13;;;;;;;;;;5070229;28;20027;-82
2022/05/31 05:44:40;;;;;;;3.25;2.58;;;;;;;;;;5097814;28;20083;-82
2022/05/31 05:47:07;;;;;;;3.20;2.58;;;;;;;;;;5080445;28;20020;-82
2022/05/31 05:49:32;;;;;;;7.15;2.80;;;;;;;;;;5084071;28;20196;-82
2022/05/31 05:52:01;;;;;;;2.90;2.70;;;;;;;;;;5085111;28;20052;-83
2022/05/31 05:54:27;;;;;;;6.97;2.83;;;;;;;;;;5073589;28;20028;-83
2022/05/31 05:56:52;;;;;;;4.28;2.63;;;;;;;;;;5089491;28;20475;-85
2022/05/31 05:59:20;;;;;;;4.43;2.78;;;;;;;;;;5063266;28;20508;-82
2022/05/31 06:01:48;;;;;;;3.67;2.25;;;;;;;;;;5077336;28;20021;-82
2022/05/31 06:04:27;;;;;;;6.13;2.60;;;;;;;;;;5082139;28;20028;-82
2022/05/31 06:07:47;;;;;;;3.40;2.30;;;;;;;;;;5066249;28;20036;-83
2022/05/31 06:10:20;;;;;;;4.68;2.42;;;;;;;;;;5097982;28;20986;-83
2022/05/31 06:12:51;;;;;;;3.15;2.33;;;;;;;;;;5096705;28;20389;-83
2022/05/31 06:15:25;;;;;;;2.38;2.17;;;;;;;;;;5097946;28;20059;-82
2022/05/31 06:17:55;;;;;;;7.75;2.47;;;;;;;;;;5097537;28;20024;-82
2022/05/31 06:20:29;;;;;;;3.75;2.42;;;;;;;;;;5097027;28;20027;-83
2022/05/31 06:22:56;;;;;;;5.13;2.67;;;;;;;;;;5094949;28;20020;-82
2022/05/31 06:25:21;;;;;;;5.45;2.70;;;;;;;;;;5096794;28;20024;-82
2022/05/31 06:27:47;;;;;;;5.00;2.92;;;;;;;;;;5096985;28;20102;-83
2022/05/31 06:30:13;;;;;;;5.50;3.10;;;;;;;;;;5079099;28;20024;-83
2022/05/31 06:32:42;;;;;;;10.05;2.58;;;;;;;;;;5095160;28;20089;-83
2022/05/31 06:35:08;;;;;;;12.63;3.92;;;;;;;;;;5078806;28;20029;-82
2022/05/31 06:37:33;;;;;;;5.53;3.17;;;;;;;;;;5083089;28;20024;-82
2022/05/31 06:39:59;;;;;;;5.88;2.53;;;;;;;;;;5097402;28;20024;-83
2022/05/31 06:42:25;;;;;;;3.90;2.60;;;;;;;;;;5095418;28;20020;-82
2022/05/31 06:44:50;;;;;;;3.67;2.55;;;;;;;;;;5092653;28;20109;-83
2022/05/31 06:47:16;;;;;;;3.47;2.33;;;;;;;;;;5097397;28;20024;-85
2022/05/31 06:49:41;;;;;;;7.00;2.90;;;;;;;;;;5080652;28;20028;-84
2022/05/31 06:57:42;;;;;;;4.03;2.72;;;;;;;;;;5095029;28;20038;-85
2022/05/31 07:00:10;;;;;;;7.50;2.92;;;;;;;;;;5067983;28;20027;-85
2022/05/31 07:02:36;;;;;;;5.82;2.35;;;;;;;;;;5094896;28;20118;-85
2022/05/31 07:05:02;;;;;;;7.00;2.60;;;;;;;;;;5060032;28;20083;-84
2022/05/31 07:07:28;;;;;;;3.83;2.58;;;;;;;;;;5058154;28;20028;-82
2022/05/31 07:09:53;;;;;;;3.45;2.20;;;;;;;;;;5057958;28;20158;-82
2022/05/31 07:12:20;;;;;;;4.45;2.22;;;;;;;;;;5075205;28;20028;-83
2022/05/31 07:14:45;;;;;;;10.15;2.63;;;;;;;;;;5062508;28;20028;-83
2022/05/31 07:17:11;;;;;;;8.30;2.55;;;;;;;;;;5082243;28;20378;-82
2022/05/31 07:19:38;;;;;;;3.88;2.20;;;;;;;;;;5057051;28;20031;-82
2022/05/31 07:22:03;;;;;;;5.28;2.47;;;;;;;;;;5061537;28;20017;-83
2022/05/31 07:24:29;;;;;;;3.60;2.30;;;;;;;;;;5097781;28;20053;-82
2022/05/31 07:26:55;;;;;;;5.80;2.50;;;;;;;;;;5100628;28;20032;-83
2022/05/31 07:29:20;;;;;;;3.42;2.30;;;;;;;;;;5098276;28;20032;-82
2022/05/31 07:31:46;;;;;;;3.75;2.22;;;;;;;;;;5097898;28;20024;-81
2022/05/31 07:34:12;;;;;;;5.00;2.28;;;;;;;;;;5097869;28;20478;-81
2022/05/31 07:36:38;;;;;;;10.93;2.47;;;;;;;;;;5097508;28;20023;-82
2022/05/31 07:39:05;;;;;;;2.35;2.10;;;;;;;;;;5079228;28;20023;-82
2022/05/31 07:41:32;;;;;;;6.63;2.85;;;;;;;;;;5091612;28;20038;-80
2022/05/31 07:43:58;;;;;;;6.47;2.80;;;;;;;;;;5107655;28;20051;-81
2022/05/31 07:46:24;;;;;;;4.35;2.35;;;;;;;;;;5097333;28;20346;-82
2022/05/31 07:48:49;;;;;;;12.77;3.05;;;;;;;;;;5097303;28;20043;-81
2022/05/31 07:51:15;;;;;;;4.97;2.50;;;;;;;;;;5097270;28;20024;-81
2022/05/31 07:53:40;;;;;;;9.50;2.72;;;;;;;;;;5096509;28;20032;-80
2022/05/31 07:56:07;;;;;;;5.78;3.08;;;;;;;;;;5070777;28;20036;-82
2022/05/31 07:58:34;;;;;;;7.28;2.78;;;;;;;;;;5095715;28;20024;-81
2022/05/31 08:01:01;;;;;;;6.35;2.63;;;;;;;;;;5097291;28;20034;-82
2022/05/31 08:03:27;;;;;;;9.50;2.28;;;;;;;;;;5079288;28;20508;-81
2022/05/31 08:05:53;;;;;;;3.45;2.30;;;;;;;;;;5097035;28;20028;-81
2022/05/31 08:08:19;;;;;;;7.03;2.60;;;;;;;;;;5078758;28;20020;-81
2022/05/31 08:10:44;;;;;;;6.63;2.60;;;;;;;;;;5082689;28;20035;-81
2022/05/31 08:13:10;;;;;;;4.65;2.03;;;;;;;;;;5076328;28;20393;-82
2022/05/31 08:15:35;;;;;;;4.15;2.15;;;;;;;;;;5076349;28;20020;-81
2022/05/31 08:18:01;;;;;;;2.72;1.80;;;;;;;;;;5058741;28;20067;-82
2022/05/31 08:20:26;;;;;;;4.75;2.20;;;;;;;;;;5058908;28;20029;-82
2022/05/31 08:22:51;;;;;;;5.00;1.75;;;;;;;;;;5090190;28;20462;-82
2022/05/31 08:25:17;;;;;;;3.03;1.85;;;;;;;;;;5078250;28;20498;-82
2022/05/31 08:27:42;;;;;;;4.85;2.10;;;;;;;;;;5096694;28;20520;-81
2022/05/31 08:30:08;;;;;;;3.13;2.00;;;;;;;;;;5096695;28;20039;-81
2022/05/31 08:32:36;;;;;;;3.45;1.98;;;;;;;;;;5096186;28;20031;-82
2022/05/31 08:35:02;;;;;;;5.53;1.98;;;;;;;;;;5077029;28;20051;-80
2022/05/31 08:37:27;;;;;;;4.30;1.98;;;;;;;;;;5095928;28;20028;-81
2022/05/31 08:39:53;;;;;;;5.05;1.83;;;;;;;;;;5090290;28;20032;-81
2022/05/31 08:42:22;;;;;;;3.60;1.42;;;;;;;;;;5076778;28;20028;-81
2022/05/31 08:45:00;;;;;;;7.50;1.80;;;;;;;;;;5082385;28;20040;-82
2022/05/31 08:47:53;;;;;;;5.00;1.50;;;;;;;;;;5075701;28;20051;-83
2022/05/31 08:53:40;;;;;;;4.93;1.92;;;;;;;;;;5083404;28;20647;-80
2022/05/31 08:59:10;;;;;;;5.68;1.85;;;;;;;;;;5056012;28;20039;-80
2022/05/31 09:01:49;;;;;;;5.82;1.60;;;;;;;;;;5059427;28;20044;-81
2022/05/31 09:04:20;;;;;;;2.13;1.55;;;;;;;;;;5095488;28;20016;-81
2022/05/31 09:06:50;;;;;;;3.70;1.50;;;;;;;;;;5088248;28;20017;-80
2022/05/31 09:09:23;;;;;;;2.72;1.60;;;;;;;;;;5063714;28;20548;-81
2022/05/31 09:12:12;;;;;;;3.90;1.52;;;;;;;;;;5075374;28;20107;-80
2022/05/31 09:14:50;;;;;;;3.28;1.92;;;;;;;;;;5078078;28;20039;-81
2022/05/31 09:17:38;;;;;;;3.95;1.83;;;;;;;;;;5095290;28;20028;-82
2022/05/31 09:20:10;;;;;;;4.35;1.73;;;;;;;;;;5069343;28;20035;-80
2022/05/31 09:22:36;;;;;;;;;;;;;;;;;;5075457;28;20048;-80
2022/05/31 09:25:05;;;;;;;5.20;1.75;;;;;;;;;;5075283;28;19912;-82
2022/05/31 09:27:47;;;;;;;4.28;1.95;;;;;;;;;;5075187;28;20082;-81
2022/05/31 09:30:34;;;;;;;3.47;1.50;;;;;;;;;;5078524;28;20035;-80
2022/05/31 09:32:59;;;;;;;6.60;1.40;;;;;;;;;;5081260;28;20035;-80
2022/05/31 09:35:40;;;;;;;2.70;1.60;;;;;;;;;;5081334;28;20025;-82
2022/05/31 09:38:24;;;;;;;4.47;1.60;;;;;;;;;;5072820;28;20031;-81
2022/05/31 09:40:53;;;;;;;6.95;2.00;;;;;;;;;;5094557;28;20078;-81
2022/05/31 09:43:35;;;;;;;1.52;1.42;;;;;;;;;;5077160;28;20020;-82
2022/05/31 09:46:05;;;;;;;2.58;1.20;;;;;;;;;;5095086;28;20142;-81
2022/05/31 09:48:31;;;;;;;7.93;1.50;;;;;;;;;;5096221;28;20032;-81
2022/05/31 09:51:32;;;;;;;3.38;1.48;;;;;;;;;;5084754;28;20359;-80
2022/05/31 09:59:29;;;;;;;1.90;1.27;;;;;;;;;;5095494;28;20447;-80
2022/05/31 10:01:55;;;;;;;3.35;1.40;;;;;;;;;;5095158;28;20031;-80
2022/05/31 10:04:27;;;;;;;4.05;1.65;;;;;;;;;;5077780;28;20583;-82
2022/05/31 10:06:56;;;;;;;2.88;1.50;;;;;;;;;;5095566;28;20024;-82
2022/05/31 10:09:28;;;;;;;9.70;2.10;;;;;;;;;;5076297;28;20077;-83
2022/05/31 10:12:15;;;;;;;5.18;1.70;;;;;;;;;;5085114;28;20060;-82
2022/05/31 10:14:43;;;;;;;2.90;1.65;;;;;;;;;;5076273;28;20164;-81
2022/05/31 10:17:34;;;;;;;3.45;1.90;;;;;;;;;;5094776;28;20060;-82
2022/05/31 10:20:07;;;;;;;5.05;1.95;;;;;;;;;;5092026;28;20031;-82
2022/05/31 10:22:34;;;;;;;9.55;1.65;;;;;;;;;;5091974;28;20035;-81
2022/05/31 10:25:18;;;;;;;3.83;1.65;;;;;;;;;;5086395;28;20028;-81
2022/05/31 10:27:44;;;;;;;3.17;1.48;;;;;;;;;;5057622;28;20028;-81
2022/05/31 10:30:17;;;;;;;4.28;1.58;;;;;;;;;;5090066;28;20048;-81
2022/05/31 10:32:46;;;;;;;7.72;1.92;;;;;;;;;;5054549;28;20447;-81
2022/05/31 10:35:24;;;;;;;2.70;1.77;;;;;;;;;;5084893;28;20020;-81
2022/05/31 10:38:17;;;;;;;2.95;2.00;;;;;;;;;;5077570;28;20444;-81
2022/05/31 10:40:52;;;;;;;5.78;1.85;;;;;;;;;;5073679;28;20398;-81
2022/05/31 10:43:29;;;;;;;4.93;2.10;;;;;;;;;;5069957;28;20493;-81
2022/05/31 10:45:55;;;;;;;6.15;1.80;;;;;;;;;;5092530;28;20104;-82
2022/05/31 10:48:21;;;;;;;4.82;1.80;;;;;;;;;;5093269;28;20024;-82
2022/05/31 10:50:58;;;;;;;4.10;1.85;;;;;;;;;;5078537;28;20032;-82
2022/05/31 10:53:29;;;;;;;3.83;2.00;;;;;;;;;;5092010;28;20024;-82
2022/05/31 10:56:16;;;;;;;5.30;2.20;;;;;;;;;;5094199;28;20078;-82
2022/05/31 10:58:52;;;;;;;2.35;1.80;;;;;;;;;;5084106;28;20033;-81
2022/05/31 11:01:33;;;;;;;6.07;2.00;;;;;;;;;;5063114;28;20115;-81
2022/05/31 11:04:14;;;;;;;1.83;1.27;;;;;;;;;;5094643;28;20073;-81
2022/05/31 11:07:06;;;;;;;1.90;1.60;;;;;;;;;;5089727;28;20016;-82
2022/05/31 11:13:06;;;;;;;3.13;1.42;;;;;;;;;;5097595;28;20073;-80
2022/05/31 11:15:37;;;;;;;2.92;1.25;;;;;;;;;;5097600;28;20042;-82
2022/05/31 11:18:23;;;;;;;4.13;1.50;;;;;;;;;;5094006;28;20487;-83
2022/05/31 11:20:54;;;;;;;2.30;1.50;;;;;;;;;;5079784;28;20075;-81
2022/05/31 11:23:31;;;;;;;8.30;1.52;;;;;;;;;;5098535;28;20024;-79
2022/05/31 11:26:07;;;;;;;4.90;1.20;;;;;;;;;;5099013;28;20024;-79
2022/05/31 11:29:14;;;;;;;1.90;1.40;;;;;;;;;;5104280;28;20049;-80
2022/05/31 11:32:01;;;;;;;3.72;1.17;;;;;;;;;;5100313;28;20059;-81
2022/05/31 11:34:51;;;;;;;2.03;1.10;;;;;;;;;;5092522;28;20021;-81
2022/05/31 11:37:44;;;;;;;4.72;1.30;;;;;;;;;;5083373;28;20540;-81
2022/05/31 11:40:19;;;;;;;1.50;1.15;;;;;;;;;;5039150;28;20104;-80
2022/05/31 11:43:21;;;;;;;2.58;1.60;;;;;;;;;;5061755;28;20023;-82
2022/05/31 11:45:49;;;;;;;4.75;1.30;;;;;;;;;;5059660;28;20486;-82
2022/05/31 11:48:15;;;;;;;2.83;1.60;;;;;;;;;;5076991;28;20021;-83
2022/05/31 11:51:04;;;;;;;3.95;1.40;;;;;;;;;;5092311;28;20028;-81
2022/05/31 11:53:35;;;;;;;3.13;1.15;;;;;;;;;;5090786;28;20088;-82
2022/05/31 11:56:02;;;;;;;5.32;1.83;;;;;;;;;;5076499;28;20047;-83
2022/05/31 11:59:09;;;;;;;3.40;1.30;;;;;;;;;;5080997;28;20363;-82
2022/05/31 12:02:00;;;;;;;1.42;1.13;;;;;;;;;;5034216;28;20067;-83
2022/05/31 12:04:49;;;;;;;2.88;1.40;;;;;;;;;;5057155;28;20021;-82
2022/05/31 12:07:32;;;;;;;2.80;1.25;;;;;;;;;;5072876;28;20024;-83
2022/05/31 12:10:15;;;;;;;2.67;1.13;;;;;;;;;;5058786;28;20021;-82
2022/05/31 12:12:42;;;;;;;1.88;1.02;;;;;;;;;;5076899;28;20025;-83
2022/05/31 12:15:10;;;;;;;2.15;1.40;;;;;;;;;;5060011;28;20487;-83
2022/05/31 12:17:39;;;;;;;3.08;1.38;;;;;;;;;;5096507;28;20044;-82
2022/05/31 12:20:31;;;;;;;2.10;1.30;;;;;;;;;;5096805;28;20028;-80
2022/05/31 12:23:09;;;;;;;3.92;1.17;;;;;;;;;;5083014;28;20040;-82
2022/05/31 12:25:41;;;;;;;10.63;1.65;;;;;;;;;;5098314;28;20529;-82
2022/05/31 12:28:08;;;;;;;;;;;;;;;;;;5099581;28;20032;-82
2022/05/31 12:30:42;;;;;;;3.08;1.45;;;;;;;;;;5099364;28;19908;-82
2022/05/31 12:33:40;;;;;;;3.80;1.48;;;;;;;;;;5088840;28;20109;-83
2022/05/31 12:36:09;;;;;;;2.78;1.10;;;;;;;;;;5081254;28;20020;-81
2022/05/31 12:39:08;;;;;;;3.65;1.60;;;;;;;;;;5078770;28;20024;-81
2022/05/31 12:41:35;;;;;;;4.18;1.77;;;;;;;;;;5046759;28;20028;-80
2022/05/31 12:44:01;;;;;;;6.25;1.40;;;;;;;;;;5078572;28;20421;-82
2022/05/31 12:46:34;;;;;;;2.72;1.20;;;;;;;;;;5078093;28;20052;-82
2022/05/31 12:49:05;;;;;;;8.10;1.42;;;;;;;;;;5079886;28;20021;-82
2022/05/31 12:51:31;;;;;;;2.42;1.52;;;;;;;;;;5081037;28;20067;-82
2022/05/31 12:54:06;;;;;;;2.95;1.15;;;;;;;;;;5080767;28;20036;-82
2022/05/31 12:56:36;;;;;;;1.52;1.20;;;;;;;;;;5061792;28;20024;-83
2022/05/31 12:59:04;;;;;;;4.38;1.40;;;;;;;;;;5076666;28;20027;-82
2022/05/31 13:01:29;;;;;;;3.40;1.23;;;;;;;;;;5076275;28;20024;-82
2022/05/31 13:04:16;;;;;;;2.30;1.15;;;;;;;;;;5075829;28;20074;-81
2022/05/31 13:07:04;;;;;;;4.32;1.30;;;;;;;;;;5075469;28;20033;-85
2022/05/31 13:09:30;;;;;;;4.38;1.50;;;;;;;;;;5075990;28;20047;-81
2022/05/31 13:20:46;;;;;;;5.70;1.20;;;;;;;;;;5077000;28;20068;-81
2022/05/31 13:23:23;;;;;;;3.42;1.70;;;;;;;;;;5081819;28;20111;-81
2022/05/31 13:26:08;;;;;;;5.35;1.73;;;;;;;;;;5056653;28;20025;-81
2022/05/31 13:28:42;;;;;;;2.35;1.52;;;;;;;;;;5064663;28;20075;-81
2022/05/31 13:31:18;;;;;;;2.40;1.25;;;;;;;;;;5059562;28;20384;-81
2022/05/31 13:33:47;;;;;;;3.72;1.23;;;;;;;;;;5076516;28;20029;-81
2022/05/31 13:36:17;;;;;;;3.97;1.35;;;;;;;;;;5076681;28;20107;-80
2022/05/31 13:38:45;;;;;;;3.63;1.52;;;;;;;;;;5068352;28;20060;-81
2022/05/31 13:41:13;;;;;;;2.75;1.23;;;;;;;;;;5076825;28;20032;-81
2022/05/31 13:43:41;;;;;;;3.33;1.40;;;;;;;;;;5076257;28;20379;-80
2022/05/31 13:46:44;;;;;;;7.97;2.00;;;;;;;;;;5076491;28;20092;-81
2022/05/31 13:49:26;;;;;;;3.20;1.42;;;;;;;;;;5076371;28;20431;-81
2022/05/31 13:51:55;;;;;;;6.07;1.45;;;;;;;;;;5059693;28;20025;-81
2022/05/31 13:54:26;;;;;;;1.52;1.38;;;;;;;;;;5086439;28;20036;-81
2022/05/31 13:56:57;;;;;;;4.72;1.40;;;;;;;;;;5095563;28;20028;-81
2022/05/31 13:59:39;;;;;;;1.27;1.17;;;;;;;;;;5096148;28;20102;-81
2022/05/31 14:02:16;;;;;;;1.80;1.25;;;;;;;;;;5067559;28;20021;-81
2022/05/31 14:04:44;;;;;;;3.67;1.30;;;;;;;;;;5096317;28;20075;-82
2022/05/31 14:07:17;;;;;;;4.13;1.55;;;;;;;;;;5095465;28;20073;-80
2022/05/31 14:09:54;;;;;;;2.50;1.08;;;;;;;;;;5055602;28;20521;-81
2022/05/31 14:12:21;;;;;;;1.83;1.20;;;;;;;;;;5037536;28;20379;-81
2022/05/31 14:14:50;;;;;;;4.65;1.65;;;;;;;;;;5055497;28;20025;-81
2022/05/31 14:17:32;;;;;;;6.03;1.42;;;;;;;;;;5037650;28;20025;-81
2022/05/31 14:19:57;;;;;;;5.55;1.67;;;;;;;;;;5055804;28;20029;-81
2022/05/31 14:22:34;;;;;;;3.30;1.10;;;;;;;;;;5084219;28;20388;-82
2022/05/31 14:25:05;;;;;;;3.75;1.35;;;;;;;;;;5075534;28;20076;-81
2022/05/31 14:27:32;;;;;;;3.13;1.15;;;;;;;;;;5074665;28;20024;-81
2022/05/31 14:30:07;;;;;;;1.58;1.27;;;;;;;;;;5075043;28;20036;-81
2022/05/31 14:32:44;;;;;;;5.25;1.30;;;;;;;;;;5075062;28;20453;-81
2022/05/31 14:35:24;;;;;;;2.78;1.30;;;;;;;;;;5074588;28;20024;-81
2022/05/31 14:37:51;;;;;;;3.10;1.50;;;;;;;;;;5071616;28;20020;-81
2022/05/31 14:41:00;;;;;;;3.88;1.40;;;;;;;;;;5094687;28;20070;-81
2022/05/31 14:43:36;;;;;;;4.53;1.40;;;;;;;;;;4993567;28;20022;-81
2022/05/31 14:46:04;;;;;;;4.30;1.38;;;;;;;;;;5087061;28;20114;-82
2022/05/31 14:48:39;;;;;;;5.30;1.65;;;;;;;;;;5094546;28;20055;-81
2022/05/31 14:51:20;;;;;;;10.25;1.75;;;;;;;;;;5085210;28;20071;-81
2022/05/31 14:53:52;;;;;;;4.25;1.67;;;;;;;;;;5094441;28;20443;-81
2022/05/31 14:56:20;;;;;;;2.58;1.80;;;;;;;;;;5088209;28;20107;-81
2022/05/31 14:58:47;;;;;;;5.53;1.50;;;;;;;;;;5083097;28;20028;-81
2022/05/31 15:01:17;;;;;;;2.85;1.27;;;;;;;;;;5056173;28;20082;-81
2022/05/31 15:03:55;;;;;;;3.63;1.55;;;;;;;;;;5077511;28;20043;-81
2022/05/31 15:06:30;;;;;;;5.38;1.48;;;;;;;;;;5046427;28;20112;-81
2022/05/31 15:26:49;;;;;;;19.20;2.65;;;;;;;;;;4999357;28;20033;-82
2022/05/31 15:33:31;;;;;;;2.17;1.10;;;;;;;;;;4957395;28;20041;-81
2022/05/31 15:35:57;;;;;;;5.13;1.50;;;;;;;;;;4902293;29;20091;-81
2022/05/31 15:38:25;;;;;;;3.53;1.17;;;;;;;;;;4939843;28;20047;-81
2022/05/31 15:40:51;;;;;;;1.50;1.33;;;;;;;;;;4958218;28;20043;-81
2022/05/31 15:43:51;;;;;;;3.13;1.10;;;;;;;;;;5050564;28;20536;-80
2022/05/31 15:46:03;;;;;;;1.90;1.25;;;;;;;;;;5071404;28;20100;-81
2022/05/31 15:48:29;;;;;;;2.55;1.30;;;;;;;;;;5085381;28;20021;-81
2022/05/31 15:50:56;;;;;;;2.58;1.30;;;;;;;;;;5090169;28;20027;-81
2022/05/31 15:53:22;;;;;;;8.20;1.80;;;;;;;;;;5084773;28;20027;-81
2022/05/31 15:55:48;;;;;;;3.40;1.35;;;;;;;;;;5078583;28;20028;-81
2022/05/31 15:58:14;;;;;;;9.18;1.90;;;;;;;;;;5070319;28;20025;-81
2022/05/31 16:00:39;;;;;;;8.95;1.50;;;;;;;;;;5086171;28;20390;-81
2022/05/31 16:03:05;;;;;;;2.63;1.50;;;;;;;;;;5076427;28;20390;-84
2022/05/31 16:05:30;;;;;;;5.88;1.42;;;;;;;;;;5090861;28;20020;-83
2022/05/31 16:07:56;;;;;;;2.97;1.35;;;;;;;;;;5073228;28;20025;-84
2022/05/31 16:10:23;;;;;;;5.10;1.60;;;;;;;;;;5096466;28;20031;-82
2022/05/31 16:12:50;;;;;;;4.53;1.50;;;;;;;;;;5086465;28;20076;-82
2022/05/31 16:15:16;;;;;;;8.70;1.67;;;;;;;;;;5098074;28;20024;-84
2022/05/31 16:17:42;;;;;;;2.97;1.15;;;;;;;;;;5099975;28;20023;-84
2022/05/31 16:20:11;;;;;;;2.92;1.25;;;;;;;;;;5099571;28;20367;-84
2022/05/31 16:22:46;;;;;;;4.38;1.20;;;;;;;;;;5098553;28;20020;-83
2022/05/31 16:25:15;;;;;;;3.05;1.50;;;;;;;;;;5065026;28;20070;-84
2022/05/31 16:27:42;;;;;;;3.42;1.02;;;;;;;;;;5098010;28;20051;-83
2022/05/31 16:30:09;;;;;;;4.78;1.10;;;;;;;;;;5099249;28;20027;-84
2022/05/31 16:32:34;;;;;;;6.07;1.60;;;;;;;;;;5098870;28;20560;-82
2022/05/31 16:34:59;;;;;;;2.35;1.50;;;;;;;;;;5088594;28;20032;-84
2022/05/31 16:42:53;;;;;;;6.88;1.20;;;;;;;;;;5078750;28;20532;-82
2022/05/31 16:45:18;;;;;;;2.60;1.20;;;;;;;;;;5078309;28;20024;-83
2022/05/31 16:47:44;;;;;;;4.00;1.15;;;;;;;;;;5078573;28;20375;-83
2022/05/31 16:50:10;;;;;;;1.42;1.20;;;;;;;;;;5079315;28;20071;-84
2022/05/31 16:52:37;;;;;;;2.08;1.30;;;;;;;;;;5097116;28;20028;-78
2022/05/31 16:55:05;;;;;;;14.35;1.52;;;;;;;;;;5100740;28;20025;-79
2022/05/31 16:57:30;;;;;;;2.55;1.17;;;;;;;;;;5088614;28;20106;-80
2022/05/31 16:59:56;;;;;;;6.68;1.65;;;;;;;;;;5096672;28;20394;-81
2022/05/31 17:02:24;;;;;;;1.90;1.30;;;;;;;;;;5099102;28;20023;-84
2022/05/31 17:04:50;;;;;;;5.95;1.30;;;;;;;;;;5099030;28;20031;-84
2022/05/31 17:15:44;;;;;;;8.73;1.70;;;;;;;;;;5073507;28;20035;-84
2022/05/31 17:18:09;;;;;;;7.43;2.22;;;;;;;;;;5087555;28;20021;-83
2022/05/31 17:20:41;;;;;;;3.80;1.27;;;;;;;;;;5077250;28;20036;-82
2022/05/31 17:23:15;;;;;;;21.95;1.77;;;;;;;;;;5089165;28;20017;-84
2022/05/31 17:25:51;;;;;;;3.05;1.55;;;;;;;;;;5089528;28;20028;-84
2022/05/31 17:28:19;;;;;;;1.88;1.40;;;;;;;;;;5097164;28;20161;-83
2022/05/31 17:30:45;;;;;;;2.97;1.60;;;;;;;;;;5096311;28;20056;-84
2022/05/31 17:33:17;;;;;;;3.17;1.40;;;;;;;;;;5079110;28;20020;-85
2022/05/31 17:35:46;;;;;;;2.50;1.35;;;;;;;;;;5088593;28;20104;-84
2022/05/31 17:38:20;;;;;;;4.50;1.45;;;;;;;;;;5092960;28;20036;-84
2022/05/31 17:40:45;;;;;;;3.42;1.73;;;;;;;;;;5038872;28;20567;-84
2022/05/31 17:43:10;;;;;;;7.18;1.83;;;;;;;;;;5056975;28;20056;-83
2022/05/31 17:45:36;;;;;;;9.88;1.58;;;;;;;;;;5039423;28;20020;-84
2022/05/31 17:48:01;;;;;;;4.20;1.60;;;;;;;;;;5057436;28;20068;-83
2022/05/31 17:50:26;;;;;;;2.65;1.50;;;;;;;;;;5079703;28;20021;-83
2022/05/31 17:52:52;;;;;;;6.13;1.60;;;;;;;;;;5091534;28;20086;-83
2022/05/31 17:55:38;;;;;;;4.22;1.40;;;;;;;;;;5083961;28;20032;-79
2022/05/31 17:58:04;;;;;;;3.15;1.40;;;;;;;;;;5073893;28;20084;-79
2022/05/31 18:00:32;;;;;;;1.75;1.30;;;;;;;;;;5101529;28;20046;-79
2022/05/31 18:02:58;;;;;;;3.03;1.30;;;;;;;;;;5089475;28;20039;-84